Time;durP1;ratioP1;P1;durP2;ratioP2;P2;SDS_P1;SDS_P2;PMS_P1;PMS_P2;Temp;Humidity;BMP_temperature;BMP_pressure;BME280_temperature;BME280_humidity;BME280_pressure;Samples;Min_cycle;Max_cycle;Signal;HPM_P1;HPM_P2
2023/05/04 00:00:26;;;;;;;9.07;5.63;;;6.90;99.90;;;;;;4811035;29;20229;-56
2023/05/04 00:02:54;;;;;;;8.33;5.30;;;6.80;99.90;;;;;;4807063;29;20903;-56
2023/05/04 00:05:24;;;;;;;8.67;5.57;;;6.80;99.90;;;;;;4807162;29;20236;-56
2023/05/04 00:07:52;;;;;;;8.73;5.80;;;6.90;99.90;;;;;;4807350;29;20571;-57
2023/05/04 00:10:20;;;;;;;12.70;6.50;;;6.80;99.90;;;;;;4807356;29;20241;-57
2023/05/04 00:12:48;;;;;;;8.00;4.60;;;6.70;99.90;;;;;;4808259;29;20343;-56
2023/05/04 00:15:16;;;;;;;7.93;5.50;;;6.70;99.90;;;;;;4817813;29;20270;-56
2023/05/04 00:17:45;;;;;;;8.43;5.20;;;6.70;99.90;;;;;;4810982;29;20268;-56
2023/05/04 00:20:13;;;;;;;7.93;5.97;;;6.90;99.90;;;;;;4816571;29;20228;-57
2023/05/04 00:22:42;;;;;;;7.77;5.40;;;6.80;99.90;;;;;;4824774;29;20236;-57
2023/05/04 00:25:11;;;;;;;8.40;5.80;;;6.80;99.90;;;;;;4824935;29;20596;-57
2023/05/04 00:27:39;;;;;;;8.93;5.70;;;6.60;99.90;;;;;;4810990;29;20719;-56
2023/05/04 00:30:08;;;;;;;9.87;6.47;;;6.60;99.90;;;;;;4806929;29;20237;-57
2023/05/04 00:32:36;;;;;;;7.50;5.13;;;6.50;99.90;;;;;;4806145;29;20284;-56
2023/05/04 00:35:05;;;;;;;7.10;5.47;;;6.60;99.90;;;;;;4805418;29;20232;-57
2023/05/04 00:37:33;;;;;;;9.30;5.70;;;6.60;99.90;;;;;;4806414;29;20714;-57
2023/05/04 00:40:03;;;;;;;7.97;5.63;;;6.70;99.90;;;;;;4806492;29;20216;-57
2023/05/04 00:42:31;;;;;;;9.43;5.53;;;6.70;99.90;;;;;;4819563;29;20243;-57
2023/05/04 00:44:59;;;;;;;8.00;5.37;;;6.80;99.90;;;;;;4814509;29;20232;-57
2023/05/04 00:47:28;;;;;;;6.53;5.13;;;6.70;99.90;;;;;;4818417;29;20240;-56
2023/05/04 00:49:57;;;;;;;7.57;5.17;;;6.60;99.90;;;;;;4816145;29;20602;-57
2023/05/04 00:52:25;;;;;;;8.27;5.40;;;6.60;99.90;;;;;;4824560;29;20260;-56
2023/05/04 00:54:54;;;;;;;7.90;4.60;;;6.50;99.90;;;;;;4823291;29;20224;-57
2023/05/04 00:57:24;;;;;;;9.37;5.47;;;6.50;99.90;;;;;;4812572;29;20316;-57
2023/05/04 00:59:53;;;;;;;5.77;4.70;;;6.40;99.90;;;;;;4806007;29;20278;-57
2023/05/04 01:02:21;;;;;;;10.27;5.80;;;6.50;99.90;;;;;;4805715;29;20249;-57
2023/05/04 01:04:51;;;;;;;6.90;5.10;;;6.50;99.90;;;;;;4804798;29;20247;-57
2023/05/04 01:07:27;;;;;;;9.43;4.90;;;6.40;99.90;;;;;;4806436;29;20310;-57
2023/05/04 01:10:02;;;;;;;7.80;4.90;;;6.50;99.90;;;;;;4806161;29;20685;-55
2023/05/04 01:12:37;;;;;;;6.67;5.00;;;6.60;99.90;;;;;;4804566;29;20615;-57
2023/05/04 01:15:08;;;;;;;9.10;5.57;;;6.50;99.90;;;;;;4805146;29;20749;-57
2023/05/04 01:17:36;;;;;;;10.93;5.67;;;6.40;99.90;;;;;;4813461;29;20717;-55
2023/05/04 01:20:06;;;;;;;9.57;4.90;;;6.40;99.90;;;;;;4806275;29;20593;-57
2023/05/04 01:22:37;;;;;;;10.90;6.13;;;6.50;99.90;;;;;;4805714;29;20281;-57
2023/05/04 01:25:06;;;;;;;10.10;5.80;;;6.40;99.90;;;;;;4805901;29;20245;-57
2023/05/04 01:27:40;;;;;;;6.90;4.90;;;6.50;99.90;;;;;;4806018;29;20574;-56
2023/05/04 01:30:14;;;;;;;8.13;5.10;;;6.50;99.90;;;;;;4798774;29;20239;-56
2023/05/04 01:32:45;;;;;;;7.60;5.17;;;6.50;99.90;;;;;;4805237;29;20713;-57
2023/05/04 01:35:14;;;;;;;10.83;5.37;;;6.40;99.90;;;;;;4805750;29;20228;-57
2023/05/04 01:37:43;;;;;;;8.57;5.03;;;6.40;99.90;;;;;;4805568;29;20228;-57
2023/05/04 01:40:12;;;;;;;7.53;5.07;;;6.50;99.90;;;;;;4805796;29;20658;-57
2023/05/04 01:42:40;;;;;;;9.17;5.57;;;6.50;99.90;;;;;;4805645;29;20265;-57
2023/05/04 01:45:09;;;;;;;8.20;4.80;;;6.60;99.90;;;;;;4815045;29;20228;-57
2023/05/04 01:47:38;;;;;;;8.10;5.30;;;6.60;99.90;;;;;;4816325;29;20233;-56
2023/05/04 01:50:07;;;;;;;7.57;5.57;;;6.60;99.90;;;;;;4816144;29;20228;-57
2023/05/04 01:52:35;;;;;;;9.00;4.47;;;6.50;99.90;;;;;;4822413;29;20231;-57
2023/05/04 01:55:05;;;;;;;9.03;5.80;;;6.50;99.90;;;;;;4822996;29;20665;-57
2023/05/04 01:57:33;;;;;;;7.27;5.07;;;6.50;99.90;;;;;;4812711;29;20306;-56
2023/05/04 02:00:01;;;;;;;7.77;4.57;;;6.50;99.90;;;;;;4804238;29;20236;-56
2023/05/04 02:02:42;;;;;;;8.20;5.33;;;6.60;99.90;;;;;;4804779;29;20244;-57
2023/05/04 02:05:13;;;;;;;8.60;5.60;;;6.40;99.90;;;;;;4803875;29;20316;-57
2023/05/04 02:07:41;;;;;;;7.27;4.67;;;6.40;99.90;;;;;;4804161;29;20243;-57
2023/05/04 02:10:11;;;;;;;6.93;5.17;;;6.50;99.90;;;;;;4804254;29;20244;-56
2023/05/04 02:12:41;;;;;;;9.80;5.87;;;6.50;99.90;;;;;;4804115;29;20282;-56
2023/05/04 02:15:10;;;;;;;10.37;5.80;;;6.40;99.90;;;;;;4816259;29;20236;-57
2023/05/04 02:17:39;;;;;;;9.90;6.30;;;6.20;99.90;;;;;;4809511;29;20236;-56
2023/05/04 02:20:09;;;;;;;8.93;5.93;;;6.00;99.90;;;;;;4816079;29;20750;-57
2023/05/04 02:22:37;;;;;;;9.80;6.33;;;5.90;99.90;;;;;;4823215;29;20693;-57
2023/05/04 02:25:06;;;;;;;10.27;6.00;;;5.80;99.90;;;;;;4822207;29;20232;-57
2023/05/04 02:27:35;;;;;;;12.50;6.17;;;5.80;99.90;;;;;;4809950;29;20229;-57
2023/05/04 02:30:04;;;;;;;7.73;5.60;;;5.90;99.90;;;;;;4803924;29;20665;-57
2023/05/04 02:32:33;;;;;;;6.30;5.10;;;6.00;99.90;;;;;;4804559;29;20257;-57
2023/05/04 02:35:01;;;;;;;10.27;5.17;;;6.00;99.90;;;;;;4804082;29;20279;-55
2023/05/04 02:37:29;;;;;;;7.20;5.30;;;5.90;99.90;;;;;;4805052;29;20232;-57
2023/05/04 02:39:57;;;;;;;8.97;5.87;;;6.00;99.90;;;;;;4805212;29;20709;-57
2023/05/04 02:42:25;;;;;;;7.47;5.20;;;6.00;99.90;;;;;;4806129;29;20725;-55
2023/05/04 02:44:55;;;;;;;7.73;5.47;;;5.90;99.90;;;;;;4822995;29;20596;-56
2023/05/04 02:47:23;;;;;;;8.03;5.43;;;5.90;99.90;;;;;;4822327;29;20594;-57
2023/05/04 02:49:51;;;;;;;9.80;6.20;;;6.00;99.90;;;;;;4835692;29;20296;-57
2023/05/04 02:52:19;;;;;;;7.23;4.53;;;5.90;99.90;;;;;;4808702;29;20224;-57
2023/05/04 02:54:47;;;;;;;10.07;5.33;;;5.90;99.90;;;;;;4808442;29;20275;-57
2023/05/04 02:57:17;;;;;;;9.83;6.50;;;6.00;99.90;;;;;;4808174;29;20597;-56
2023/05/04 02:59:45;;;;;;;8.50;6.10;;;5.80;99.90;;;;;;4807970;29;20264;-57
2023/05/04 03:02:15;;;;;;;7.77;6.07;;;5.80;99.90;;;;;;4807571;29;20251;-57
2023/05/04 03:04:43;;;;;;;8.27;5.70;;;5.70;99.90;;;;;;4807898;29;20228;-57
2023/05/04 03:07:12;;;;;;;7.47;5.90;;;5.80;99.90;;;;;;4808636;29;20236;-57
2023/05/04 03:09:40;;;;;;;9.10;6.70;;;5.90;99.90;;;;;;4806722;29;20331;-57
2023/05/04 03:12:08;;;;;;;9.27;6.03;;;5.70;99.90;;;;;;4808094;29;20600;-57
2023/05/04 03:14:36;;;;;;;7.83;5.17;;;5.60;99.90;;;;;;4815127;29;20225;-56
2023/05/04 03:17:05;;;;;;;6.70;4.73;;;5.60;99.90;;;;;;4807039;29;20228;-56
2023/05/04 03:19:34;;;;;;;6.87;5.60;;;5.70;99.90;;;;;;4815125;29;20307;-56
2023/05/04 03:22:03;;;;;;;6.80;4.90;;;5.80;99.90;;;;;;4788567;29;20253;-57
2023/05/04 03:24:31;;;;;;;7.30;5.23;;;5.70;99.90;;;;;;4789648;30;20237;-57
2023/05/04 03:26:59;;;;;;;9.17;5.33;;;5.70;99.90;;;;;;4797245;29;20252;-57
2023/05/04 03:29:28;;;;;;;8.53;5.87;;;5.70;99.90;;;;;;4806171;29;20281;-56
2023/05/04 03:31:57;;;;;;;8.47;6.00;;;5.60;99.90;;;;;;4806076;29;20243;-56
2023/05/04 03:34:25;;;;;;;8.40;5.77;;;5.60;99.90;;;;;;4807477;29;20813;-57
2023/05/04 03:37:00;;;;;;;6.40;5.13;;;5.40;99.90;;;;;;4807679;29;20260;-57
2023/05/04 03:39:29;;;;;;;8.57;6.33;;;5.50;99.90;;;;;;4807387;29;20574;-57
2023/05/04 03:41:58;;;;;;;7.93;5.50;;;5.30;99.90;;;;;;4806175;29;20236;-57
2023/05/04 03:44:26;;;;;;;8.87;5.30;;;5.40;99.90;;;;;;4813408;29;20236;-55
2023/05/04 03:46:54;;;;;;;8.00;5.50;;;5.30;99.90;;;;;;4823755;29;20592;-57
2023/05/04 03:49:22;;;;;;;10.80;5.80;;;5.30;99.90;;;;;;4822979;29;20225;-57
2023/05/04 03:51:50;;;;;;;9.07;5.93;;;5.30;99.90;;;;;;4807507;29;20239;-57
2023/05/04 03:54:21;;;;;;;7.23;5.77;;;5.30;99.90;;;;;;4805999;29;20232;-57
2023/05/04 03:56:49;;;;;;;8.07;5.80;;;5.30;99.90;;;;;;4805942;29;20642;-57
2023/05/04 03:59:17;;;;;;;8.80;6.17;;;5.40;99.90;;;;;;4799441;29;20241;-57
2023/05/04 04:01:46;;;;;;;6.90;6.13;;;5.40;99.90;;;;;;4802325;29;20252;-57
2023/05/04 04:04:14;;;;;;;8.87;5.90;;;5.30;99.90;;;;;;4803380;29;20320;-56
2023/05/04 04:06:43;;;;;;;8.47;6.40;;;5.20;99.90;;;;;;4807450;29;20323;-57
2023/05/04 04:09:13;;;;;;;9.50;6.30;;;5.20;99.90;;;;;;4792071;29;20229;-57
2023/05/04 04:11:42;;;;;;;8.37;5.57;;;5.20;99.90;;;;;;4788850;29;20262;-57
2023/05/04 04:14:10;;;;;;;7.33;5.63;;;5.30;99.90;;;;;;4810626;29;20709;-57
2023/05/04 04:16:43;;;;;;;6.93;6.23;;;5.30;99.90;;;;;;4815475;29;20727;-57
2023/05/04 04:19:12;;;;;;;6.57;5.70;;;5.30;99.90;;;;;;4814349;29;20299;-57
2023/05/04 04:21:40;;;;;;;7.47;6.27;;;5.30;99.90;;;;;;4821966;29;20232;-57
2023/05/04 04:24:08;;;;;;;10.90;6.03;;;5.30;99.90;;;;;;4824996;29;20258;-56
2023/05/04 04:26:36;;;;;;;11.03;6.40;;;5.30;99.90;;;;;;4824996;29;20597;-56
2023/05/04 04:29:06;;;;;;;10.93;5.80;;;5.40;99.90;;;;;;4824902;29;20243;-56
2023/05/04 04:31:34;;;;;;;12.83;6.53;;;5.50;99.90;;;;;;4824538;29;20724;-57
2023/05/04 04:34:02;;;;;;;9.00;6.73;;;5.60;99.90;;;;;;4824731;29;20740;-57
2023/05/04 04:36:30;;;;;;;11.20;6.47;;;5.50;99.90;;;;;;4824856;29;20239;-57
2023/05/04 04:38:58;;;;;;;13.13;7.23;;;5.50;99.90;;;;;;4824767;29;20245;-57
2023/05/04 04:41:27;;;;;;;9.20;5.93;;;5.60;99.90;;;;;;4824811;29;20228;-56
2023/05/04 04:43:55;;;;;;;13.10;6.57;;;5.60;99.90;;;;;;4816299;29;20244;-57
2023/05/04 04:46:24;;;;;;;12.43;6.33;;;5.70;99.90;;;;;;4807367;29;20259;-57
2023/05/04 04:48:53;;;;;;;11.80;6.60;;;5.70;99.90;;;;;;4813922;29;20264;-57
2023/05/04 04:51:21;;;;;;;10.17;6.90;;;5.80;99.90;;;;;;4813249;29;20244;-57
2023/05/04 04:53:50;;;;;;;8.73;6.07;;;5.80;99.90;;;;;;4801531;29;20320;-57
2023/05/04 04:56:18;;;;;;;11.93;6.90;;;6.00;99.90;;;;;;4793312;29;20241;-57
2023/05/04 04:58:47;;;;;;;9.90;6.13;;;6.20;99.90;;;;;;4788011;29;20298;-58
2023/05/04 05:01:16;;;;;;;11.07;6.70;;;6.40;99.90;;;;;;4800621;29;20293;-57
2023/05/04 05:03:47;;;;;;;12.57;6.30;;;6.60;99.90;;;;;;4794959;29;20241;-57
2023/05/04 05:06:16;;;;;;;12.50;6.20;;;6.60;99.90;;;;;;4787932;29;20700;-57
2023/05/04 05:08:45;;;;;;;12.93;6.47;;;6.60;99.90;;;;;;4788103;29;20255;-57
2023/05/04 05:11:13;;;;;;;11.03;7.03;;;6.70;99.90;;;;;;4788002;29;20251;-56
2023/05/04 05:13:41;;;;;;;10.27;6.30;;;6.70;99.90;;;;;;4805655;29;20228;-57
2023/05/04 05:16:09;;;;;;;13.60;7.00;;;6.70;99.90;;;;;;4814970;29;20233;-56
2023/05/04 05:18:37;;;;;;;10.17;6.67;;;6.80;99.90;;;;;;4804627;29;20228;-57
2023/05/04 05:21:08;;;;;;;9.43;6.17;;;6.90;99.90;;;;;;4817111;29;20235;-57
2023/05/04 05:23:36;;;;;;;9.60;6.73;;;7.00;99.90;;;;;;4801791;29;20597;-57
2023/05/04 05:26:04;;;;;;;14.80;6.73;;;7.10;99.90;;;;;;4805822;29;20245;-57
2023/05/04 05:28:35;;;;;;;11.07;6.80;;;7.40;99.90;;;;;;4805542;29;20688;-49
2023/05/04 05:31:04;;;;;;;9.63;6.07;;;7.50;99.90;;;;;;4793230;29;20347;-56
2023/05/04 05:33:32;;;;;;;10.13;6.07;;;7.50;99.90;;;;;;4789657;29;20253;-53
2023/05/04 05:36:00;;;;;;;10.37;5.80;;;7.60;99.90;;;;;;4790667;29;20327;-54
2023/05/04 05:38:29;;;;;;;10.93;5.37;;;7.80;99.90;;;;;;4790755;29;20244;-56
2023/05/04 05:40:57;;;;;;;9.00;5.30;;;8.00;99.90;;;;;;4790532;29;20236;-57
2023/05/04 05:43:25;;;;;;;10.73;4.97;;;8.30;99.90;;;;;;4792288;29;20725;-54
2023/05/04 05:45:54;;;;;;;8.73;4.80;;;8.50;99.90;;;;;;4791591;29;20692;-56
2023/05/04 05:48:22;;;;;;;11.07;5.30;;;8.60;99.90;;;;;;4791635;29;20717;-55
2023/05/04 05:50:50;;;;;;;8.30;5.13;;;8.70;99.90;;;;;;4789699;29;20237;-53
2023/05/04 05:53:18;;;;;;;12.60;5.03;;;8.80;99.90;;;;;;4791215;29;20233;-55
2023/05/04 05:55:47;;;;;;;9.60;4.80;;;8.90;99.90;;;;;;4792097;29;20240;-56
2023/05/04 05:58:16;;;;;;;6.73;4.00;;;9.00;99.90;;;;;;4791854;29;20241;-56
2023/05/04 06:00:44;;;;;;;7.63;4.67;;;9.10;99.90;;;;;;4788720;29;20256;-53
2023/05/04 06:03:12;;;;;;;8.13;4.47;;;9.40;99.90;;;;;;4790221;29;20233;-55
2023/05/04 06:05:40;;;;;;;7.60;4.33;;;9.60;99.90;;;;;;4790728;29;20721;-56
2023/05/04 06:08:08;;;;;;;9.87;4.70;;;9.70;99.90;;;;;;4792014;29;21089;-56
2023/05/04 06:10:36;;;;;;;10.00;4.47;;;9.80;99.90;;;;;;4787299;29;20232;-55
2023/05/04 06:13:06;;;;;;;7.23;4.30;;;9.90;99.90;;;;;;4790252;29;20266;-57
2023/05/04 06:15:35;;;;;;;6.93;3.43;;;10.00;99.90;;;;;;4791087;29;20717;-55
2023/05/04 06:18:03;;;;;;;6.97;3.20;;;10.10;99.90;;;;;;4793163;29;20714;-56
2023/05/04 06:20:31;;;;;;;6.37;3.30;;;10.20;99.90;;;;;;4790483;29;20237;-53
2023/05/04 06:23:00;;;;;;;9.07;3.30;;;10.40;99.90;;;;;;4793564;29;20242;-56
2023/05/04 06:25:28;;;;;;;6.13;3.20;;;10.50;99.90;;;;;;4794324;29;20706;-52
2023/05/04 06:27:56;;;;;;;7.90;3.37;;;10.60;99.90;;;;;;4794473;29;20240;-56
2023/05/04 06:30:25;;;;;;;9.80;2.97;;;10.70;99.90;;;;;;4789448;29;21413;-56
2023/05/04 06:32:59;;;;;;;7.27;3.27;;;10.80;99.90;;;;;;4792714;29;20250;-54
2023/05/04 06:35:30;;;;;;;7.33;3.20;;;10.90;99.90;;;;;;4791487;29;20246;-50
2023/05/04 06:37:58;;;;;;;9.23;3.53;;;11.00;99.90;;;;;;4793046;29;20754;-56
2023/05/04 06:40:26;;;;;;;7.23;2.90;;;11.00;99.90;;;;;;4792153;29;20623;-55
2023/05/04 06:42:55;;;;;;;8.00;3.03;;;11.00;99.90;;;;;;4794502;29;20303;-55
2023/05/04 06:45:23;;;;;;;8.33;3.13;;;11.10;99.90;;;;;;4794820;29;20920;-51
2023/05/04 06:47:52;;;;;;;5.60;2.73;;;11.10;99.90;;;;;;4795349;29;20710;-52
2023/05/04 06:50:22;;;;;;;8.03;2.93;;;11.20;99.90;;;;;;4792685;29;20237;-53
2023/05/04 06:52:51;;;;;;;6.87;3.17;;;11.30;99.90;;;;;;4795334;29;20581;-53
2023/05/04 06:55:19;;;;;;;7.67;3.03;;;11.40;99.90;;;;;;4794884;29;20679;-56
2023/05/04 06:57:47;;;;;;;9.10;3.20;;;11.40;99.90;;;;;;4795351;29;20247;-50
2023/05/04 07:00:15;;;;;;;8.00;2.90;;;11.40;99.90;;;;;;4792197;29;20242;-52
2023/05/04 07:02:45;;;;;;;8.80;3.10;;;11.60;99.90;;;;;;4795401;29;20235;-56
2023/05/04 07:05:15;;;;;;;6.73;2.90;;;11.80;99.90;;;;;;4792925;29;20236;-57
2023/05/04 07:07:43;;;;;;;6.50;2.83;;;12.00;99.90;;;;;;4791315;29;20591;-56
2023/05/04 07:10:13;;;;;;;9.13;2.80;;;12.10;99.90;;;;;;4787855;29;21508;-53
2023/05/04 07:12:42;;;;;;;6.67;3.10;;;12.20;99.90;;;;;;4792410;29;20246;-55
2023/05/04 07:15:11;;;;;;;7.87;2.97;;;12.30;99.90;;;;;;4791270;29;20246;-57
2023/05/04 07:17:39;;;;;;;7.73;3.07;;;12.40;99.90;;;;;;4791697;29;20362;-50
2023/05/04 07:20:09;;;;;;;7.23;2.90;;;12.50;99.90;;;;;;4788313;29;20272;-56
2023/05/04 07:22:38;;;;;;;7.93;3.40;;;12.60;99.90;;;;;;4792547;29;20268;-54
2023/05/04 07:25:07;;;;;;;8.13;2.90;;;12.70;99.90;;;;;;4791740;29;20766;-51
2023/05/04 07:27:35;;;;;;;8.23;3.13;;;13.10;99.90;;;;;;4790064;29;20330;-52
2023/05/04 07:30:05;;;;;;;6.60;2.90;;;13.30;99.90;;;;;;4786203;29;20253;-55
2023/05/04 07:32:33;;;;;;;8.33;2.70;;;13.50;99.90;;;;;;4791231;29;20263;-55
2023/05/04 07:35:01;;;;;;;6.37;2.90;;;13.80;99.90;;;;;;4794689;29;20240;-56
2023/05/04 07:37:30;;;;;;;7.40;2.70;;;14.00;99.90;;;;;;4794370;29;20245;-55
2023/05/04 07:40:00;;;;;;;5.80;2.60;;;14.20;99.90;;;;;;4791988;29;20241;-56
2023/05/04 07:42:28;;;;;;;4.67;2.33;;;14.30;99.90;;;;;;4794381;29;20876;-52
2023/05/04 07:44:56;;;;;;;6.53;2.30;;;14.40;99.90;;;;;;4795370;29;20248;-55
2023/05/04 07:47:25;;;;;;;7.13;2.50;;;14.60;99.90;;;;;;4791726;29;20704;-55
2023/05/04 07:49:53;;;;;;;7.10;2.43;;;14.50;99.90;;;;;;4788068;29;20344;-57
2023/05/04 07:52:21;;;;;;;7.37;2.73;;;14.50;99.90;;;;;;4791191;29;20604;-53
2023/05/04 07:54:52;;;;;;;5.67;2.20;;;14.50;99.90;;;;;;4791580;29;20725;-56
2023/05/04 07:57:21;;;;;;;5.43;2.07;;;14.60;99.90;;;;;;4791354;29;20653;-55
2023/05/04 07:59:53;;;;;;;11.67;2.37;;;14.70;99.90;;;;;;4790191;29;20247;-53
2023/05/04 08:02:22;;;;;;;7.63;2.37;;;14.70;99.90;;;;;;4793089;29;20243;-53
2023/05/04 08:04:50;;;;;;;6.23;2.40;;;14.70;99.90;;;;;;4793445;29;20262;-55
2023/05/04 08:07:19;;;;;;;6.90;2.20;;;15.00;99.90;;;;;;4794194;29;20245;-55
2023/05/04 08:09:47;;;;;;;5.80;2.30;;;15.30;99.90;;;;;;4791138;29;20236;-56
2023/05/04 08:12:15;;;;;;;9.63;2.67;;;15.20;99.90;;;;;;4793718;29;20867;-52
2023/05/04 08:14:47;;;;;;;7.97;2.30;;;15.20;99.90;;;;;;4794021;29;20243;-56
2023/05/04 08:17:15;;;;;;;5.83;2.70;;;15.10;99.90;;;;;;4794631;29;20616;-55
2023/05/04 08:19:43;;;;;;;6.07;2.57;;;15.40;99.90;;;;;;4791246;29;20778;-50
2023/05/04 08:22:11;;;;;;;6.63;2.47;;;15.50;99.90;;;;;;4793060;29;20245;-56
2023/05/04 08:24:39;;;;;;;9.90;2.60;;;15.90;99.90;;;;;;4791975;29;21347;-54
2023/05/04 08:27:07;;;;;;;4.93;2.40;;;16.10;99.90;;;;;;4793623;29;20251;-54
2023/05/04 08:29:37;;;;;;;7.50;2.43;;;16.10;99.90;;;;;;4790967;29;20716;-51
2023/05/04 08:32:07;;;;;;;5.27;2.40;;;16.00;99.90;;;;;;4790106;29;20259;-57
2023/05/04 08:34:36;;;;;;;5.83;2.50;;;15.90;99.90;;;;;;4793379;29;20708;-57
2023/05/04 08:37:04;;;;;;;5.47;2.40;;;15.80;99.90;;;;;;4793772;29;20260;-56
2023/05/04 08:39:32;;;;;;;7.00;2.40;;;16.00;99.90;;;;;;4791896;29;20233;-54
2023/05/04 08:42:01;;;;;;;4.90;2.40;;;16.00;99.90;;;;;;4790877;29;21127;-52
2023/05/04 08:44:29;;;;;;;6.60;2.50;;;16.30;99.90;;;;;;4793026;29;20740;-57
2023/05/04 08:46:58;;;;;;;5.97;2.00;;;16.50;99.90;;;;;;4793249;29;20890;-57
2023/05/04 08:49:27;;;;;;;6.03;2.13;;;16.60;99.90;;;;;;4793566;29;20248;-54
2023/05/04 08:51:57;;;;;;;5.10;2.50;;;16.60;99.90;;;;;;4787789;29;20233;-55
2023/05/04 08:54:26;;;;;;;6.50;2.60;;;16.60;99.90;;;;;;4790629;29;20240;-56
2023/05/04 08:56:55;;;;;;;6.90;2.80;;;16.80;99.90;;;;;;4790577;29;20838;-57
2023/05/04 08:59:27;;;;;;;8.90;3.00;;;16.90;99.90;;;;;;4791081;29;20289;-56
2023/05/04 09:01:58;;;;;;;5.23;2.60;;;16.80;99.90;;;;;;4786807;29;20748;-56
2023/05/04 09:04:28;;;;;;;9.30;2.50;;;16.40;99.90;;;;;;4789958;29;20337;-55
2023/05/04 09:06:57;;;;;;;6.87;2.23;;;16.70;99.90;;;;;;4790310;29;20276;-54
2023/05/04 09:09:28;;;;;;;6.20;2.50;;;17.00;99.90;;;;;;4792401;29;20305;-52
2023/05/04 09:11:57;;;;;;;8.23;2.47;;;17.30;99.90;;;;;;4790888;29;20819;-56
2023/05/04 09:14:34;;;;;;;6.50;2.20;;;17.50;99.90;;;;;;4792531;29;20250;-55
2023/05/04 09:17:03;;;;;;;7.47;2.43;;;17.60;99.90;;;;;;4792529;29;20320;-56
2023/05/04 09:19:33;;;;;;;6.83;2.83;;;17.90;99.90;;;;;;4791985;29;20725;-57
2023/05/04 09:22:02;;;;;;;5.20;2.10;;;17.90;99.90;;;;;;4791113;29;20240;-57
2023/05/04 09:24:30;;;;;;;7.77;2.67;;;18.00;99.90;;;;;;4790199;29;20238;-54
2023/05/04 09:27:09;;;;;;;6.57;2.40;;;17.60;99.90;;;;;;4789236;29;20552;-56
2023/05/04 09:29:39;;;;;;;7.23;2.93;;;17.50;99.90;;;;;;4787016;29;20248;-54
2023/05/04 09:32:12;;;;;;;6.33;2.53;;;17.70;99.90;;;;;;4787031;29;20269;-54
2023/05/04 09:34:52;;;;;;;7.37;2.47;;;18.10;99.90;;;;;;4790156;29;20242;-57
2023/05/04 09:37:21;;;;;;;6.20;2.40;;;18.00;99.90;;;;;;4792174;29;20240;-57
2023/05/04 09:39:54;;;;;;;6.30;2.53;;;18.20;99.90;;;;;;4790336;29;20772;-56
2023/05/04 09:42:23;;;;;;;6.03;2.40;;;18.50;99.90;;;;;;4792535;29;20238;-55
2023/05/04 09:45:01;;;;;;;6.17;2.33;;;18.50;99.90;;;;;;4791773;29;20611;-57
2023/05/04 09:47:35;;;;;;;7.93;2.70;;;18.30;99.90;;;;;;4792249;29;20243;-53
2023/05/04 09:50:20;;;;;;;5.40;2.20;;;18.20;99.90;;;;;;4790354;29;20374;-56
2023/05/04 09:52:49;;;;;;;7.57;2.37;;;18.50;99.90;;;;;;4796511;29;20288;-56
2023/05/04 09:55:19;;;;;;;3.37;2.03;;;18.60;99.90;;;;;;4793054;29;20238;-53
2023/05/04 09:57:49;;;;;;;6.20;2.40;;;18.60;99.90;;;;;;4793675;29;20758;-54
2023/05/04 10:00:18;;;;;;;6.60;2.40;;;18.20;99.90;;;;;;4789236;29;20242;-52
2023/05/04 10:02:47;;;;;;;5.43;2.30;;;17.90;99.90;;;;;;4793439;29;20239;-57
2023/05/04 10:05:20;;;;;;;5.63;2.63;;;18.00;99.90;;;;;;4794042;29;20730;-57
2023/05/04 10:07:49;;;;;;;4.50;2.10;;;18.10;99.90;;;;;;4793211;29;20236;-54
2023/05/04 10:10:17;;;;;;;5.97;2.23;;;18.20;99.90;;;;;;4790237;29;20252;-54
2023/05/04 10:12:45;;;;;;;5.80;2.60;;;17.80;99.90;;;;;;4793294;29;20691;-56
2023/05/04 10:15:15;;;;;;;6.53;2.40;;;17.90;99.90;;;;;;4793063;29;20660;-57
2023/05/04 10:18:11;;;;;;;6.20;2.17;;;17.90;99.90;;;;;;4792721;29;20226;-56
2023/05/04 10:20:59;;;;;;;5.57;2.30;;;17.90;99.90;;;;;;4789001;29;20242;-54
2023/05/04 10:23:45;;;;;;;4.83;2.37;;;17.90;99.90;;;;;;4793318;29;20239;-56
2023/05/04 10:26:46;;;;;;;3.83;2.20;;;18.20;99.90;;;;;;4793766;29;20327;-57
2023/05/04 10:29:21;;;;;;;5.23;2.40;;;18.10;99.90;;;;;;4791438;29;20739;-57
2023/05/04 10:31:52;;;;;;;7.07;2.30;;;17.80;99.90;;;;;;4790960;29;20248;-53
2023/05/04 10:34:28;;;;;;;5.20;2.43;;;17.50;99.90;;;;;;4793428;29;20264;-50
2023/05/04 10:36:58;;;;;;;6.33;2.23;;;17.70;99.90;;;;;;4792879;29;21236;-50
2023/05/04 10:39:30;;;;;;;5.70;2.37;;;18.00;99.90;;;;;;4791246;29;20310;-49
2023/05/04 10:42:04;;;;;;;6.13;2.30;;;18.00;99.90;;;;;;4787947;29;20326;-49
2023/05/04 10:44:33;;;;;;;5.97;2.10;;;18.10;99.90;;;;;;4791021;29;20262;-50
2023/05/04 10:47:05;;;;;;;6.50;2.33;;;18.00;99.90;;;;;;4791913;29;20747;-48
2023/05/04 10:49:35;;;;;;;5.47;2.40;;;17.90;99.90;;;;;;4790590;29;20294;-49
2023/05/04 10:52:07;;;;;;;6.83;2.50;;;17.60;99.90;;;;;;4790352;29;20661;-52
2023/05/04 10:54:36;;;;;;;6.80;2.20;;;17.70;99.90;;;;;;4792405;29;20747;-50
2023/05/04 10:57:06;;;;;;;6.13;2.60;;;17.60;99.90;;;;;;4794359;29;20217;-51
2023/05/04 10:59:34;;;;;;;4.43;2.20;;;17.60;99.90;;;;;;4790880;29;20320;-47
2023/05/04 11:02:05;;;;;;;5.37;2.50;;;17.30;99.90;;;;;;4789687;29;20568;-49
2023/05/04 11:04:34;;;;;;;5.40;2.27;;;17.50;99.90;;;;;;4791324;29;20239;-50
2023/05/04 11:07:04;;;;;;;3.27;2.23;;;17.70;99.90;;;;;;4792426;29;20294;-50
2023/05/04 11:09:38;;;;;;;7.47;2.60;;;17.90;99.90;;;;;;4794173;29;20323;-48
2023/05/04 11:12:09;;;;;;;6.63;2.20;;;18.20;99.90;;;;;;4793048;29;20727;-48
2023/05/04 11:14:41;;;;;;;6.40;2.60;;;18.00;99.90;;;;;;4794566;29;20245;-50
2023/05/04 11:17:11;;;;;;;8.03;2.53;;;18.00;99.90;;;;;;4794168;29;20261;-50
2023/05/04 11:19:56;;;;;;;4.27;2.47;;;18.00;99.90;;;;;;4791913;29;20606;-51
2023/05/04 11:22:24;;;;;;;5.73;2.77;;;18.00;99.90;;;;;;4794464;29;20350;-51
2023/05/04 11:24:54;;;;;;;5.57;2.73;;;18.30;99.90;;;;;;4792512;29;20602;-52
2023/05/04 11:27:24;;;;;;;4.87;2.90;;;18.20;99.90;;;;;;4792325;29;20749;-49
2023/05/04 11:30:03;;;;;;;3.80;2.43;;;18.30;99.90;;;;;;4788639;29;20250;-50
2023/05/04 11:32:35;;;;;;;4.10;2.40;;;18.10;99.90;;;;;;4789673;29;21159;-51
2023/05/04 11:35:05;;;;;;;6.13;2.43;;;18.10;99.90;;;;;;4793505;29;20240;-51
2023/05/04 11:37:38;;;;;;;6.80;2.57;;;17.90;99.90;;;;;;4794186;29;20587;-50
2023/05/04 11:40:13;;;;;;;7.43;2.47;;;17.70;99.90;;;;;;4792694;29;20251;-52
2023/05/04 11:42:42;;;;;;;4.47;2.27;;;18.00;99.90;;;;;;4792080;29;20242;-52
2023/05/04 11:45:13;;;;;;;5.47;2.23;;;18.20;99.90;;;;;;4791388;29;20373;-52
2023/05/04 11:47:41;;;;;;;5.83;2.50;;;18.40;99.90;;;;;;4791386;29;20239;-47
2023/05/04 11:50:12;;;;;;;5.13;2.37;;;18.30;99.90;;;;;;4787931;29;20240;-50
2023/05/04 11:52:40;;;;;;;5.80;2.17;;;18.20;99.90;;;;;;4790756;29;20254;-50
2023/05/04 11:55:10;;;;;;;3.60;2.10;;;18.30;99.90;;;;;;4793871;29;20715;-51
2023/05/04 11:57:40;;;;;;;9.87;2.67;;;18.30;99.90;;;;;;4791261;29;20970;-51
2023/05/04 12:00:11;;;;;;;5.73;2.43;;;18.40;99.90;;;;;;4787596;29;20605;-48
2023/05/04 12:02:39;;;;;;;6.30;2.43;;;18.70;99.90;;;;;;4789845;29;20662;-52
2023/05/04 12:05:12;;;;;;;4.97;2.20;;;18.80;99.90;;;;;;4789862;29;20239;-48
2023/05/04 12:07:41;;;;;;;6.33;2.57;;;18.80;99.90;;;;;;4789869;29;20650;-49
2023/05/04 12:10:09;;;;;;;5.47;2.53;;;18.60;99.90;;;;;;4791350;29;20681;-50
2023/05/04 12:12:39;;;;;;;5.53;2.13;;;18.40;99.90;;;;;;4793534;29;20628;-51
2023/05/04 12:15:09;;;;;;;7.00;2.50;;;18.40;99.90;;;;;;4793021;29;20234;-49
2023/05/04 12:17:41;;;;;;;5.63;2.07;;;18.50;99.90;;;;;;4790459;29;20632;-49
2023/05/04 12:20:10;;;;;;;8.07;2.20;;;18.70;99.90;;;;;;4787997;29;20324;-52
2023/05/04 12:22:38;;;;;;;3.83;2.20;;;18.40;99.90;;;;;;4792694;29;21036;-53
2023/05/04 12:25:07;;;;;;;4.07;2.27;;;18.40;99.90;;;;;;4791077;29;20251;-51
2023/05/04 12:27:42;;;;;;;6.97;2.50;;;18.60;99.90;;;;;;4790208;29;20661;-50
2023/05/04 12:30:11;;;;;;;5.50;2.10;;;18.70;99.90;;;;;;4789394;29;20237;-49
2023/05/04 12:32:39;;;;;;;5.33;2.83;;;18.80;99.90;;;;;;4790496;29;20371;-52
2023/05/04 12:35:08;;;;;;;6.63;2.30;;;18.60;99.90;;;;;;4790339;29;20978;-51
2023/05/04 12:37:37;;;;;;;5.17;2.50;;;18.60;99.90;;;;;;4789903;29;20263;-53
2023/05/04 12:40:08;;;;;;;5.40;2.10;;;18.60;99.90;;;;;;4785959;29;20331;-51
2023/05/04 12:42:55;;;;;;;4.33;2.13;;;18.80;99.90;;;;;;4789631;29;20246;-52
2023/05/04 12:45:23;;;;;;;5.00;1.90;;;19.00;99.90;;;;;;4790004;29;20292;-50
2023/05/04 12:47:51;;;;;;;4.63;2.27;;;19.00;99.90;;;;;;4789382;29;20269;-49
2023/05/04 12:50:20;;;;;;;5.40;2.33;;;18.90;99.90;;;;;;4785723;29;20298;-47
2023/05/04 12:52:48;;;;;;;4.53;2.03;;;18.50;99.90;;;;;;4789831;29;20663;-51
2023/05/04 12:55:16;;;;;;;5.77;2.00;;;18.50;99.90;;;;;;4790898;29;20246;-49
2023/05/04 12:57:44;;;;;;;6.07;2.20;;;18.30;99.90;;;;;;4789401;29;20715;-50
2023/05/04 13:00:15;;;;;;;5.17;2.10;;;18.30;99.90;;;;;;4784860;29;20733;-50
2023/05/04 13:02:43;;;;;;;8.07;2.60;;;18.60;99.90;;;;;;4789758;29;20263;-50